Airfield :
LOGIN :

Register | Disclaimer

   EN    FR    IT 

 










Legend :    VFR   Marginal VFR   IFR   Intensive IFR   Very Intensive IFR
Visi :
Ceiling :
>= 8 km
>= 3000ft
5 to 8 km
1000 to 3000 ft
1500m to 5 km
500 to 1000 ft
800 to 1500m
200 to 500 ft
< 800m
< 200 ft
Symbols :   Thunderstorms  Fog  Heavy snow  Heavy precipitations  Wind > 20 kt
SIGMETs :     Misc.  Thunderstorms  Icing  Turbulence  Mountain Waves  Volcanic Ashes






- Airport Elevation : 788 ft
- IATA code : DCM


LFCK - Castres-Mazamet

CURRENT METAR :
  • 251530Z AUTO 27015KT 9999 BKN028 BKN034 OVC066 13/08 Q1014 TEMPO 29018G30KT 4000 -RA BKN013

EXPIRED METARs :
  • 251500Z AUTO 28013KT 9999 BKN030 BKN037 BKN072 13/08 Q1015 TEMPO 29018G30KT 4000 -RA BKN013
  • 251430Z AUTO 29015KT 9999 BKN026 BKN041 BKN049 13/08 Q1015 TEMPO 29018G30KT 4000 -RA BKN013
  • 251400Z AUTO 29015KT 9999 BKN029 OVC035 13/08 Q1016 TEMPO 28015G25KT 4000 -RA BKN013
  • 251330Z AUTO 29017KT 9999 OVC026 13/08 Q1016 TEMPO 28015G25KT 4000 -RA BKN013
  • 251300Z AUTO 27014KT 9999 OVC026 13/07 Q1016 TEMPO 28015G25KT 4000 -RA BKN013

TAF TAF LFCK
Valid from the 25 at 15:00 until the 26 at 00:00 UTC


251400Z 2515/2524 29013KT 9999 BKN030
PROB40
TEMPO 2515/2524 29018G30KT 4000 -RA BKN013



MET'MAP, your aeronautical weather chart ! - Copyright ORBIFLY December 2007 - Disclaimer

ORBIFLY MET'MAP TEAM :

Programming & Development : Alexandra Zaïnal
Concept & original design : Baudouin d'Aumeries
Assistance for programming : Marc-Olivier Méhu
Technical & hardware support : Manuel Goepfert

Contact : metmap@orbifly.com




SOURCES & CREDITS :

   NOAA